Location name: Nyundo | Identifier : 196501 | Type : Hydrology Station

About 1.2 km from the Mahoko market it consists of a staff gauge and radar sensor at the bridge at the right bank. Both banks are easily accessible.

  • Parameter : Stage
  • Unit : m
  • Start time : 2018-03-02T00:00:00.0000000+02:00
  • End time : 2021-11-30T00:00:00.0000000+02:00
  • Parameter : Stage
  • Unit : m
  • Start time : 1974-01-01T08:00:00.0000000+02:00
  • End time : 2014-08-11T00:00:00.0000000+02:00
  • Parameter : Discharge
  • Unit : m^3/s
  • Start time : 1974-01-01T00:00:00.0000000+02:00
  • End time : 2014-08-11T00:00:00.0000000+02:00
  • Parameter : Stage
  • Unit : m
  • Start time : 2018-03-01T09:15:00.0000000+02:00
  • End time : 2021-11-29T20:30:00.0000000+02:00
  • Parameter : Discharge
  • Unit : m^3/s
  • Start time : 2020-08-01T15:15:00.0000000+02:00
  • End time : 2021-11-29T20:30:00.0000000+02:00
  • Parameter : Water Velocity
  • Unit : m/s
  • Start time : 2017-04-21T11:30:00.0000000+02:00
  • End time : 2021-11-29T20:30:00.0000000+02:00
Date Parameter Unit Value
2018-05-02T10:03:00.0000000+02:00 Stage m 0.73
1972-10-31T00:00:00.0000000+02:00 Discharge m^3/s 0.75
1972-10-31T00:00:00.0000000+02:00 Stage m 0.219999999
1972-10-31T01:00:00.0000000+02:00 Discharge m^3/s 0.75
1972-10-31T01:00:00.0000000+02:00 Stage m 0.219999999
1972-11-29T00:00:00.0000000+02:00 Discharge m^3/s 1.879999995
1972-11-29T00:00:00.0000000+02:00 Stage m 0.430000007
1972-11-29T01:00:00.0000000+02:00 Discharge m^3/s 1.879999995
1972-11-29T01:00:00.0000000+02:00 Stage m 0.430000007
1973-01-31T00:00:00.0000000+02:00 Discharge m^3/s 1.700000048
1973-01-31T00:00:00.0000000+02:00 Stage m 0.400000006
1973-01-31T01:00:00.0000000+02:00 Discharge m^3/s 1.700000048
1973-01-31T01:00:00.0000000+02:00 Stage m 0.400000006
1973-04-12T00:00:00.0000000+02:00 Discharge m^3/s 3.140000105
1973-04-12T00:00:00.0000000+02:00 Stage m 0.680000007
1973-04-12T00:00:00.0000000+02:00 Discharge m^3/s 2.559999943
1973-04-12T00:00:00.0000000+02:00 Stage m 0.519999981
1973-04-12T00:00:00.0000000+02:00 Discharge m^3/s 4.320000172
1973-04-12T00:00:00.0000000+02:00 Stage m 0.819999993
1973-04-12T00:00:00.0000000+02:00 Discharge m^3/s 3.140000105
1973-04-12T00:00:00.0000000+02:00 Stage m 0.620000005
1973-04-12T01:00:00.0000000+02:00 Discharge m^3/s 3.799999952
1973-04-12T01:00:00.0000000+02:00 Stage m 0.680000007
1973-04-12T01:01:00.0000000+02:00 Discharge m^3/s 2.559999943
1973-04-12T01:01:00.0000000+02:00 Stage m 0.519999981
1973-04-12T01:03:00.0000000+02:00 Discharge m^3/s 3.140000105
1973-04-12T01:03:00.0000000+02:00 Stage m 0.620000005
1973-04-13T00:00:00.0000000+02:00 Discharge m^3/s 3.74000001
1973-04-13T00:00:00.0000000+02:00 Stage m 0.800000012
1973-04-13T00:00:00.0000000+02:00 Discharge m^3/s 3.74000001
1973-04-13T00:00:00.0000000+02:00 Stage m 0.699999988
1973-04-13T01:00:00.0000000+02:00 Discharge m^3/s 4.400000095
1973-04-13T01:00:00.0000000+02:00 Stage m 0.800000012
1973-04-13T01:01:00.0000000+02:00 Discharge m^3/s 3.74000001
1973-04-13T01:01:00.0000000+02:00 Stage m 0.699999988
1973-04-14T00:00:00.0000000+02:00 Discharge m^3/s 2.700000048
1973-04-14T00:00:00.0000000+02:00 Stage m 0.529999971
1973-04-14T01:00:00.0000000+02:00 Discharge m^3/s 2.700000048
1973-04-14T01:00:00.0000000+02:00 Stage m 0.529999971
1973-04-15T00:00:00.0000000+02:00 Discharge m^3/s 4.730000019
1973-04-15T00:00:00.0000000+02:00 Stage m 0.579999983
1973-04-15T00:00:00.0000000+02:00 Discharge m^3/s 3.680000067
1973-04-15T00:00:00.0000000+02:00 Stage m 0.680000007
1973-04-15T00:00:00.0000000+02:00 Discharge m^3/s 4.730000019
1973-04-15T00:00:00.0000000+02:00 Stage m 0.790000021
1973-04-15T01:00:00.0000000+02:00 Discharge m^3/s 3.059999943
1973-04-15T01:00:00.0000000+02:00 Stage m 0.579999983
1973-04-15T01:02:00.0000000+02:00 Discharge m^3/s 4.730000019
1973-04-15T01:02:00.0000000+02:00 Stage m 0.790000021
1973-04-16T00:00:00.0000000+02:00 Discharge m^3/s 3.720000029
1973-04-16T00:00:00.0000000+02:00 Stage m 0.850000024
1973-04-16T00:00:00.0000000+02:00 Discharge m^3/s 4.25
1973-04-16T00:00:00.0000000+02:00 Stage m 0.720000029
1973-04-16T00:00:00.0000000+02:00 Discharge m^3/s 3.720000029
1973-04-16T00:00:00.0000000+02:00 Stage m 0.689999998
1973-04-16T01:00:00.0000000+02:00 Discharge m^3/s 4.920000076
1973-04-16T01:00:00.0000000+02:00 Stage m 0.850000024
1973-04-16T01:01:00.0000000+02:00 Discharge m^3/s 4.25
1973-04-16T01:01:00.0000000+02:00 Stage m 0.720000029
1973-04-16T01:02:00.0000000+02:00 Discharge m^3/s 3.720000029
1973-04-16T01:02:00.0000000+02:00 Stage m 0.689999998
1973-04-17T00:00:00.0000000+02:00 Discharge m^3/s 3.00999999
1973-04-17T00:00:00.0000000+02:00 Stage m 0.629999995
1973-04-17T00:00:00.0000000+02:00 Discharge m^3/s 3.25999999
1973-04-17T00:00:00.0000000+02:00 Stage m 0.670000017
1973-04-17T00:00:00.0000000+02:00 Discharge m^3/s 3.00999999
1973-04-17T00:00:00.0000000+02:00 Stage m 0.600000024
1973-04-17T01:00:00.0000000+02:00 Discharge m^3/s 3.309999943
1973-04-17T01:00:00.0000000+02:00 Stage m 0.629999995
1973-04-17T01:01:00.0000000+02:00 Discharge m^3/s 3.25999999
1973-04-17T01:01:00.0000000+02:00 Stage m 0.670000017
1973-04-17T01:02:00.0000000+02:00 Discharge m^3/s 3.00999999
1973-04-17T01:02:00.0000000+02:00 Stage m 0.600000024
1973-04-18T00:00:00.0000000+02:00 Discharge m^3/s 3.710000038
1973-04-18T00:00:00.0000000+02:00 Stage m 0.629999995
1973-04-18T00:00:00.0000000+02:00 Discharge m^3/s 3.710000038
1973-04-18T00:00:00.0000000+02:00 Stage m 0.649999976
1973-04-18T01:00:00.0000000+02:00 Discharge m^3/s 3.230000019
1973-04-18T01:00:00.0000000+02:00 Stage m 0.629999995
1973-04-18T01:01:00.0000000+02:00 Discharge m^3/s 3.710000038
1973-04-18T01:01:00.0000000+02:00 Stage m 0.649999976
1973-04-19T00:00:00.0000000+02:00 Discharge m^3/s 3.569999933
1973-04-19T00:00:00.0000000+02:00 Stage m 0.769999981
1973-04-19T00:00:00.0000000+02:00 Discharge m^3/s 3.950000048
1973-04-19T00:00:00.0000000+02:00 Stage m 0.699999988
1973-04-19T00:00:00.0000000+02:00 Discharge m^3/s 3.569999933
1973-04-19T00:00:00.0000000+02:00 Stage m 0.649999976
1973-04-19T01:00:00.0000000+02:00 Discharge m^3/s 4.460000038
1973-04-19T01:00:00.0000000+02:00 Stage m 0.769999981
1973-04-19T01:01:00.0000000+02:00 Discharge m^3/s 3.569999933
1973-04-19T01:01:00.0000000+02:00 Stage m 0.699999988
1973-04-19T01:01:00.0000000+02:00 Discharge m^3/s 3.569999933
1973-04-19T01:01:00.0000000+02:00 Stage m 0.649999976
1973-04-20T00:00:00.0000000+02:00 Discharge m^3/s 3.119999886
1973-04-20T00:00:00.0000000+02:00 Stage m 0.589999974
1973-04-20T01:00:00.0000000+02:00 Discharge m^3/s 3.119999886
1973-04-20T01:00:00.0000000+02:00 Stage m 0.589999974
1973-04-21T00:00:00.0000000+02:00 Discharge m^3/s 2.920000076
1973-04-21T00:00:00.0000000+02:00 Stage m 0.529999971
1973-04-21T01:00:00.0000000+02:00 Discharge m^3/s 2.920000076
1973-04-21T01:00:00.0000000+02:00 Stage m 0.529999971
1973-04-22T00:00:00.0000000+02:00 Discharge m^3/s 2.619999886
1973-04-22T00:00:00.0000000+02:00 Stage m 0.529999971
1973-04-22T01:00:00.0000000+02:00 Discharge m^3/s 2.619999886
1973-04-22T01:00:00.0000000+02:00 Stage m 0.529999971
1975-04-15T00:00:00.0000000+02:00 Discharge m^3/s 5.769999981
1975-04-15T00:00:00.0000000+02:00 Stage m 0.910000026
1975-04-15T01:00:00.0000000+02:00 Discharge m^3/s 5.769999981
1975-04-15T01:00:00.0000000+02:00 Stage m 0.910000026
1977-05-04T00:00:00.0000000+02:00 Discharge m^3/s 2.625
1977-05-04T00:00:00.0000000+02:00 Stage m 0.790000021
1977-05-04T01:00:00.0000000+02:00 Discharge m^3/s 2.625
1977-05-04T01:00:00.0000000+02:00 Stage m 0.790000021
1980-08-26T00:00:00.0000000+02:00 Discharge m^3/s 1.235000014
1980-08-26T00:00:00.0000000+02:00 Stage m 0.589999974
1980-08-26T01:00:00.0000000+02:00 Discharge m^3/s 1.235000014
1980-08-26T01:00:00.0000000+02:00 Stage m 0.589999974
1988-05-12T00:00:00.0000000+02:00 Discharge m^3/s 4.583000183
1988-05-12T00:00:00.0000000+02:00 Stage m 1.200000048
1988-05-12T01:00:00.0000000+02:00 Discharge m^3/s 4.583000183
1988-05-12T01:00:00.0000000+02:00 Stage m 1.200000048
1988-06-11T00:00:00.0000000+02:00 Discharge m^3/s 1.731999993
1988-06-11T00:00:00.0000000+02:00 Stage m 0.649999976
1988-06-11T01:00:00.0000000+02:00 Discharge m^3/s 1.731999993
1988-06-11T01:00:00.0000000+02:00 Stage m 0.649999976
1988-08-11T00:00:00.0000000+02:00 Discharge m^3/s 2.151000023
1988-08-11T00:00:00.0000000+02:00 Stage m 0.699999988
1988-08-11T01:00:00.0000000+02:00 Discharge m^3/s 2.151000023
1988-08-11T01:00:00.0000000+02:00 Stage m 0.699999988
1988-12-01T00:00:00.0000000+02:00 Discharge m^3/s 2
1988-12-01T00:00:00.0000000+02:00 Stage m 0.629999995
1988-12-01T01:00:00.0000000+02:00 Discharge m^3/s 2
1988-12-01T01:00:00.0000000+02:00 Stage m 0.629999995
1988-12-11T00:00:00.0000000+02:00 Discharge m^3/s 1.194000006
1988-12-11T00:00:00.0000000+02:00 Stage m 0.639999986
1988-12-11T01:00:00.0000000+02:00 Discharge m^3/s 1.194000006
1988-12-11T01:00:00.0000000+02:00 Stage m 0.639999986
1989-05-11T00:00:00.0000000+02:00 Discharge m^3/s 2.717999935
1989-05-11T00:00:00.0000000+02:00 Stage m 0.75999999
1989-05-11T01:00:00.0000000+02:00 Discharge m^3/s 2.717999935
1989-05-11T01:00:00.0000000+02:00 Stage m 0.75999999
1989-09-18T00:00:00.0000000+02:00 Discharge m^3/s 2.992000103
1989-09-18T00:00:00.0000000+02:00 Stage m 1.360000014
1989-09-18T01:00:00.0000000+02:00 Discharge m^3/s 2.992000103
1989-09-18T01:00:00.0000000+02:00 Stage m 1.360000014
1989-10-13T00:00:00.0000000+02:00 Discharge m^3/s 2.095999956
1989-10-13T00:00:00.0000000+02:00 Stage m 0.850000024
1989-10-13T01:00:00.0000000+02:00 Discharge m^3/s 2.095999956
1989-10-13T01:00:00.0000000+02:00 Stage m 0.850000024
1990-03-30T00:00:00.0000000+02:00 Discharge m^3/s 2.447999954
1990-03-30T00:00:00.0000000+02:00 Stage m 0.800000012
1990-03-30T01:00:00.0000000+02:00 Discharge m^3/s 2.447999954
1990-03-30T01:00:00.0000000+02:00 Stage m 0.800000012
1990-12-27T00:00:00.0000000+02:00 Discharge m^3/s 1.75999999
1990-12-27T00:00:00.0000000+02:00 Stage m 0.970000029
1990-12-27T01:00:00.0000000+02:00 Discharge m^3/s 1.75999999
1990-12-27T01:00:00.0000000+02:00 Stage m 0.970000029
1992-02-21T00:00:00.0000000+02:00 Discharge m^3/s 2.210000038
1992-02-21T00:00:00.0000000+02:00 Stage m 0.800000012
1992-02-21T01:00:00.0000000+02:00 Discharge m^3/s 2.210000038
1992-02-21T01:00:00.0000000+02:00 Stage m 0.800000012
1992-03-25T00:00:00.0000000+02:00 Discharge m^3/s 2.144000053
1992-03-25T00:00:00.0000000+02:00 Stage m 0.860000014
1992-03-25T01:00:00.0000000+02:00 Discharge m^3/s 2.144000053
1992-03-25T01:00:00.0000000+02:00 Stage m 0.860000014
1992-08-12T00:00:00.0000000+02:00 Discharge m^3/s 1.743999958
1992-08-12T00:00:00.0000000+02:00 Stage m 0.569999993
1992-08-12T01:00:00.0000000+02:00 Discharge m^3/s 1.743999958
1992-08-12T01:00:00.0000000+02:00 Stage m 0.569999993
1992-08-22T00:00:00.0000000+02:00 Discharge m^3/s 1.144000053
1992-08-22T00:00:00.0000000+02:00 Stage m 0.550000012
1992-08-22T01:00:00.0000000+02:00 Discharge m^3/s 1.144000053
1992-08-22T01:00:00.0000000+02:00 Stage m 0.550000012
1996-10-06T00:00:00.0000000+02:00 Discharge m^3/s 1.664000034
1996-10-06T00:00:00.0000000+02:00 Stage m 0.670000017
1996-10-06T01:00:00.0000000+02:00 Discharge m^3/s 1.664000034
1996-10-06T01:00:00.0000000+02:00 Stage m 0.670000017
1996-12-13T00:00:00.0000000+02:00 Discharge m^3/s 1.333999991
1996-12-13T00:00:00.0000000+02:00 Stage m 0.620000005
1996-12-13T01:00:00.0000000+02:00 Discharge m^3/s 1.333999991
1996-12-13T01:00:00.0000000+02:00 Stage m 0.620000005
2000-03-09T00:00:00.0000000+02:00 Discharge m^3/s 2.019999981
2000-03-09T00:00:00.0000000+02:00 Stage m 0.680000007
2012-02-25T12:00:00.0000000+02:00 Discharge m^3/s 0.82
2014-02-21T12:00:00.0000000+02:00 Discharge m^3/s 0.28
2014-04-28T12:00:00.0000000+02:00 Discharge m^3/s 1.67
2014-08-18T14:12:00.0000000+02:00 Discharge m^3/s 0.64
2017-05-04T14:11:00.0000000+02:00 Discharge m^3/s 2.7
2017-08-23T14:07:00.0000000+02:00 Discharge m^3/s 1.29
2017-08-23T14:07:00.0000000+02:00 Stage m 0.66
2017-09-28T11:05:00.0000000+02:00 Discharge m^3/s 1.4
2017-09-28T11:05:00.0000000+02:00 Stage m 0.67
2017-11-22T14:04:00.0000000+02:00 Discharge m^3/s 1.74
2017-11-22T14:04:00.0000000+02:00 Stage m 0.66
2018-08-30T08:55:00.0000000+02:00 Discharge m^3/s 2.86
2018-08-30T08:55:00.0000000+02:00 Stage m 0.89
2018-12-13T10:48:00.0000000+02:00 Discharge m^3/s 2.42
2018-12-13T10:48:00.0000000+02:00 Stage m 0.87
2019-06-05T08:55:00.0000000+02:00 Discharge m^3/s 3.8
2019-06-05T08:55:00.0000000+02:00 Stage m 0.82
2019-09-04T11:34:00.0000000+02:00 Discharge m^3/s 2.83
2020-06-10T09:30:00.0000000+02:00 Discharge m^3/s 3.55
2020-06-10T09:30:00.0000000+02:00 Stage m 0.98
2020-09-24T10:13:00.0000000+02:00 Discharge m^3/s 2.16
2020-09-24T10:13:00.0000000+02:00 Stage m 0.84
2020-09-25T10:15:00.0000000+02:00 Discharge m^3/s 2.7
2020-09-25T10:15:00.0000000+02:00 Stage m 0.86